Time;durP1;ratioP1;P1;durP2;ratioP2;P2;SDS_P1;SDS_P2;PMS_P1;PMS_P2;Temp;Humidity;BMP_temperature;BMP_pressure;BME280_temperature;BME280_humidity;BME280_pressure;Samples;Min_cycle;Max_cycle;Signal;HPM_P1;HPM_P2
2023/07/29 00:02:22;;;;;;;9.50;4.13;;;20.40;99.90;;;;;;4986667;28;20073;-63
2023/07/29 00:05:08;;;;;;;5.70;4.30;;;20.40;99.90;;;;;;4988612;28;20056;-61
2023/07/29 00:07:54;;;;;;;5.95;3.88;;;20.30;99.90;;;;;;4988825;28;20054;-62
2023/07/29 00:10:40;;;;;;;6.75;3.90;;;20.30;99.90;;;;;;4993494;28;20116;-61
2023/07/29 00:13:26;;;;;;;6.47;4.38;;;20.20;99.90;;;;;;4986127;28;20496;-61
2023/07/29 00:16:12;;;;;;;6.00;4.07;;;20.20;99.90;;;;;;4985168;28;20399;-62
2023/07/29 00:18:58;;;;;;;5.97;4.53;;;20.20;99.90;;;;;;4988842;28;20489;-62
2023/07/29 00:21:44;;;;;;;5.57;4.05;;;20.20;99.90;;;;;;4985817;28;20046;-62
2023/07/29 00:24:30;;;;;;;8.68;5.15;;;20.10;99.90;;;;;;4987190;28;20097;-61
2023/07/29 00:27:15;;;;;;;6.82;4.32;;;20.10;99.90;;;;;;4970482;28;20258;-61
2023/07/29 00:30:02;;;;;;;6.57;4.13;;;20.10;99.90;;;;;;4974907;28;20056;-62
2023/07/29 00:32:47;;;;;;;8.10;4.53;;;20.10;99.90;;;;;;4975441;28;20451;-62
2023/07/29 00:35:34;;;;;;;8.18;5.30;;;20.10;99.90;;;;;;4981249;28;20074;-62
2023/07/29 00:38:20;;;;;;;7.07;4.70;;;20.10;99.90;;;;;;4975099;28;20078;-62
2023/07/29 00:41:07;;;;;;;6.90;4.80;;;20.00;99.90;;;;;;4987465;28;20573;-63
2023/07/29 00:43:53;;;;;;;7.97;5.05;;;20.00;99.90;;;;;;4991107;28;20380;-63
2023/07/29 00:46:41;;;;;;;6.88;4.85;;;20.00;99.90;;;;;;4989361;28;20042;-63
2023/07/29 00:49:27;;;;;;;7.63;4.75;;;19.90;99.90;;;;;;4987202;28;20484;-63
2023/07/29 00:52:13;;;;;;;7.63;5.00;;;19.90;99.90;;;;;;4992191;28;20495;-63
2023/07/29 00:54:59;;;;;;;7.35;5.22;;;19.90;99.90;;;;;;4991569;28;20039;-64
2023/07/29 00:57:48;;;;;;;9.35;6.22;;;19.80;99.90;;;;;;4992690;28;20843;-64
2023/07/29 01:00:34;;;;;;;8.27;5.30;;;19.80;99.90;;;;;;4988691;28;20045;-65
2023/07/29 01:03:21;;;;;;;6.97;5.40;;;19.80;99.90;;;;;;4992693;28;20042;-65
2023/07/29 01:06:26;;;;;;;7.32;5.35;;;19.70;99.90;;;;;;4990964;28;20049;-65
2023/07/29 01:09:25;;;;;;;7.90;5.50;;;19.80;99.90;;;;;;4991891;28;20411;-65
2023/07/29 01:12:36;;;;;;;8.65;5.57;;;19.70;99.90;;;;;;4976901;28;20167;-64
2023/07/29 01:15:33;;;;;;;8.32;5.18;;;19.70;99.90;;;;;;4991330;28;20042;-64
2023/07/29 01:18:23;;;;;;;7.22;5.60;;;19.70;99.90;;;;;;4990941;28;20042;-64
2023/07/29 01:21:12;;;;;;;8.90;6.07;;;19.60;99.90;;;;;;4986921;28;20044;-64
2023/07/29 01:24:01;;;;;;;8.07;5.60;;;19.60;99.90;;;;;;4977098;28;20043;-63
2023/07/29 01:26:47;;;;;;;10.52;6.15;;;19.60;99.90;;;;;;4989821;28;20065;-63
2023/07/29 01:29:33;;;;;;;8.55;5.68;;;19.60;99.90;;;;;;4990345;28;20077;-64
2023/07/29 01:32:30;;;;;;;7.10;5.65;;;19.60;99.90;;;;;;4980580;28;20403;-64
2023/07/29 01:35:49;;;;;;;9.52;6.93;;;19.60;99.90;;;;;;4989091;28;20137;-64
2023/07/29 01:38:37;;;;;;;8.18;5.20;;;19.50;99.90;;;;;;4976333;28;20080;-65
2023/07/29 01:41:24;;;;;;;7.00;5.15;;;19.50;99.90;;;;;;4990795;28;20109;-64
2023/07/29 01:44:12;;;;;;;8.48;6.07;;;19.50;99.90;;;;;;4990927;28;20049;-64
2023/07/29 01:46:58;;;;;;;9.10;5.53;;;19.40;99.90;;;;;;4991140;28;20042;-65
2023/07/29 01:49:44;;;;;;;7.55;5.57;;;19.40;99.90;;;;;;4991615;28;20041;-65
2023/07/29 01:52:29;;;;;;;8.75;5.47;;;19.30;99.90;;;;;;4991400;28;20054;-65
2023/07/29 01:55:15;;;;;;;10.80;5.88;;;19.30;99.90;;;;;;4987410;28;20620;-65
2023/07/29 01:58:01;;;;;;;9.05;5.47;;;19.30;99.90;;;;;;4992750;28;20053;-64
2023/07/29 02:00:47;;;;;;;6.95;5.32;;;19.30;99.90;;;;;;4991167;28;20514;-63
2023/07/29 02:03:33;;;;;;;8.57;5.38;;;19.30;99.90;;;;;;4979024;28;20035;-62
2023/07/29 02:06:19;;;;;;;9.27;5.80;;;19.20;99.90;;;;;;4987636;28;20042;-63
2023/07/29 02:09:05;;;;;;;7.10;4.47;;;19.20;99.90;;;;;;4989617;28;20101;-63
2023/07/29 02:11:51;;;;;;;7.60;5.85;;;19.20;99.90;;;;;;4991683;28;20046;-63
2023/07/29 02:14:37;;;;;;;8.30;5.47;;;19.20;99.90;;;;;;4988534;28;20055;-63
2023/07/29 02:17:23;;;;;;;7.00;5.40;;;19.10;99.90;;;;;;4972459;28;20042;-63
2023/07/29 02:20:10;;;;;;;10.48;5.15;;;19.20;99.90;;;;;;4968062;28;20125;-63
2023/07/29 02:22:56;;;;;;;7.28;5.60;;;19.20;99.90;;;;;;4991829;28;20046;-63
2023/07/29 02:25:42;;;;;;;10.57;5.85;;;19.20;99.90;;;;;;4988614;28;20069;-62
2023/07/29 02:28:28;;;;;;;6.50;5.15;;;19.20;99.90;;;;;;4990789;28;20053;-63
2023/07/29 02:31:21;;;;;;;7.18;5.20;;;19.10;99.90;;;;;;4988310;28;20088;-63
2023/07/29 02:34:07;;;;;;;8.23;5.95;;;19.10;99.90;;;;;;4991772;28;20050;-63
2023/07/29 02:36:53;;;;;;;7.72;5.53;;;19.10;99.90;;;;;;4975942;28;20038;-64
2023/07/29 02:39:39;;;;;;;7.38;5.35;;;19.10;99.90;;;;;;4988419;28;20078;-63
2023/07/29 02:42:25;;;;;;;7.32;5.25;;;19.10;99.90;;;;;;4974638;28;20455;-63
2023/07/29 02:45:11;;;;;;;7.45;5.60;;;19.10;99.90;;;;;;4988768;28;20491;-64
2023/07/29 02:47:57;;;;;;;8.50;5.80;;;19.00;99.90;;;;;;4972185;28;20035;-64
2023/07/29 02:50:43;;;;;;;8.18;5.57;;;19.00;99.90;;;;;;4980037;28;20045;-70
2023/07/29 02:53:29;;;;;;;8.40;5.63;;;19.00;99.90;;;;;;4991385;28;20088;-70
2023/07/29 02:56:15;;;;;;;7.20;5.00;;;19.00;99.90;;;;;;4988742;28;20078;-69
2023/07/29 02:59:01;;;;;;;8.32;5.70;;;19.00;99.90;;;;;;4988698;28;20049;-69
2023/07/29 03:01:47;;;;;;;6.82;5.13;;;19.00;99.90;;;;;;4974197;28;20053;-69
2023/07/29 03:04:33;;;;;;;9.38;5.95;;;19.00;99.90;;;;;;4981336;28;20604;-69
2023/07/29 03:07:20;;;;;;;7.95;5.32;;;19.00;99.90;;;;;;4983959;28;20046;-70
2023/07/29 03:10:06;;;;;;;7.65;5.45;;;19.00;99.90;;;;;;4982296;28;20141;-69
2023/07/29 03:12:56;;;;;;;9.73;5.63;;;19.00;99.90;;;;;;4981900;28;20070;-69
2023/07/29 03:15:41;;;;;;;9.25;6.53;;;19.00;99.90;;;;;;4968211;28;20038;-69
2023/07/29 03:18:27;;;;;;;8.95;5.88;;;19.00;99.90;;;;;;4972650;28;20066;-69
2023/07/29 03:21:13;;;;;;;7.45;5.60;;;19.00;99.90;;;;;;4971249;28;20099;-69
2023/07/29 03:24:00;;;;;;;7.43;5.90;;;19.00;99.90;;;;;;4972153;28;20480;-69
2023/07/29 03:26:46;;;;;;;6.47;5.00;;;19.00;99.90;;;;;;4989258;28;20126;-70
2023/07/29 03:29:32;;;;;;;7.03;5.50;;;18.90;99.90;;;;;;4989083;28;20479;-70
2023/07/29 03:32:17;;;;;;;7.95;5.50;;;18.90;99.90;;;;;;4976135;28;20412;-70
2023/07/29 03:35:04;;;;;;;8.45;5.65;;;18.90;99.90;;;;;;4989787;28;20043;-70
2023/07/29 03:37:50;;;;;;;8.55;5.72;;;18.90;99.90;;;;;;4974607;28;20105;-71
2023/07/29 03:40:36;;;;;;;8.35;5.75;;;18.90;99.90;;;;;;4986720;28;20042;-70
2023/07/29 03:43:22;;;;;;;7.07;5.55;;;18.90;99.90;;;;;;4990855;28;20054;-71
2023/07/29 03:46:08;;;;;;;7.22;5.18;;;18.90;99.90;;;;;;4987327;28;20049;-71
2023/07/29 03:48:54;;;;;;;7.45;5.43;;;18.90;99.90;;;;;;4990545;28;20133;-70
2023/07/29 03:51:40;;;;;;;9.32;6.38;;;18.90;99.90;;;;;;4988462;28;20073;-71
2023/07/29 03:54:26;;;;;;;5.95;4.95;;;18.90;99.90;;;;;;4983329;28;20055;-71
2023/07/29 03:57:12;;;;;;;8.48;5.38;;;18.90;99.90;;;;;;4982248;28;20049;-71
2023/07/29 03:59:57;;;;;;;7.50;5.95;;;18.90;99.90;;;;;;4988578;28;20053;-70
2023/07/29 04:02:45;;;;;;;8.65;5.80;;;18.90;99.90;;;;;;4989057;28;20044;-70
2023/07/29 04:05:31;;;;;;;6.93;4.82;;;18.90;99.90;;;;;;4982581;28;20051;-72
2023/07/29 04:08:17;;;;;;;6.50;5.05;;;18.90;99.90;;;;;;4996997;28;20046;-70
2023/07/29 04:11:03;;;;;;;7.15;5.68;;;19.00;99.90;;;;;;4985477;28;20053;-71
2023/07/29 04:13:49;;;;;;;7.88;5.68;;;19.00;99.90;;;;;;4970995;28;20054;-72
2023/07/29 04:16:35;;;;;;;7.45;5.60;;;19.00;99.90;;;;;;4989310;28;20042;-72
2023/07/29 04:19:21;;;;;;;7.60;5.72;;;19.00;99.90;;;;;;4988202;28;20046;-72
2023/07/29 04:22:07;;;;;;;7.25;5.20;;;19.10;99.90;;;;;;4970257;28;20043;-72
2023/07/29 04:24:53;;;;;;;8.15;5.20;;;19.10;99.90;;;;;;4986072;28;20396;-72
2023/07/29 04:27:39;;;;;;;7.82;5.55;;;19.20;99.90;;;;;;4989735;28;20034;-72
2023/07/29 04:30:25;;;;;;;8.73;5.60;;;19.20;99.90;;;;;;4986631;28;20042;-72
2023/07/29 04:33:11;;;;;;;7.75;5.70;;;19.20;99.90;;;;;;4989093;28;20046;-72
2023/07/29 04:35:57;;;;;;;6.38;5.07;;;19.30;99.90;;;;;;4987833;28;20128;-71
2023/07/29 04:38:43;;;;;;;8.07;5.53;;;19.30;99.90;;;;;;4989133;28;20042;-71
2023/07/29 04:41:29;;;;;;;6.88;5.45;;;19.40;99.90;;;;;;4971729;28;20042;-71
2023/07/29 04:44:15;;;;;;;6.22;4.97;;;19.50;99.90;;;;;;4975484;28;20101;-71
2023/07/29 04:47:01;;;;;;;7.75;5.35;;;19.60;99.90;;;;;;4971117;28;20039;-71
2023/07/29 04:49:47;;;;;;;7.60;4.65;;;19.60;99.90;;;;;;4972773;28;20129;-72
2023/07/29 04:52:33;;;;;;;6.72;4.85;;;19.70;99.90;;;;;;4989284;28;20051;-70
2023/07/29 04:55:18;;;;;;;7.55;4.57;;;19.70;99.90;;;;;;4987135;28;20086;-70
2023/07/29 04:58:04;;;;;;;6.07;4.90;;;19.80;99.90;;;;;;4981165;28;20057;-70
2023/07/29 05:00:50;;;;;;;6.68;5.00;;;19.80;99.90;;;;;;4981720;28;20053;-70
2023/07/29 05:03:37;;;;;;;7.10;5.18;;;19.90;99.90;;;;;;4988826;28;20046;-69
2023/07/29 05:06:22;;;;;;;7.60;4.75;;;20.00;99.90;;;;;;4982979;28;20046;-69
2023/07/29 05:09:16;;;;;;;7.68;5.18;;;20.00;99.90;;;;;;4985324;28;20415;-69
2023/07/29 05:12:02;;;;;;;6.68;4.68;;;20.10;99.90;;;;;;4984864;28;20086;-69
2023/07/29 05:14:48;;;;;;;5.75;4.00;;;20.20;99.90;;;;;;4979571;28;20054;-72
2023/07/29 05:17:34;;;;;;;6.00;4.45;;;20.20;99.90;;;;;;4974089;28;20046;-71
2023/07/29 05:20:20;;;;;;;7.18;5.80;;;20.30;99.90;;;;;;4986422;28;20129;-71
2023/07/29 05:23:06;;;;;;;5.38;4.40;;;20.30;99.90;;;;;;4981269;28;20456;-72
2023/07/29 05:25:52;;;;;;;8.00;4.95;;;20.30;99.90;;;;;;4990504;28;20052;-71
2023/07/29 05:28:38;;;;;;;6.28;4.25;;;20.30;99.90;;;;;;4993165;28;20042;-71
2023/07/29 05:31:24;;;;;;;5.50;4.20;;;20.40;99.90;;;;;;4987354;28;20079;-71
2023/07/29 05:34:10;;;;;;;5.50;4.45;;;20.50;99.90;;;;;;4975370;28;20128;-70
2023/07/29 05:36:56;;;;;;;6.32;4.18;;;20.60;99.90;;;;;;4973239;28;20039;-69
2023/07/29 05:39:41;;;;;;;5.65;4.40;;;20.70;99.90;;;;;;4983611;28;20420;-70
2023/07/29 05:42:27;;;;;;;5.60;4.43;;;20.80;99.90;;;;;;4991147;28;20096;-70
2023/07/29 05:45:14;;;;;;;6.40;3.28;;;20.90;99.90;;;;;;4989761;28;20057;-70
2023/07/29 05:47:59;;;;;;;7.63;4.03;;;21.00;99.90;;;;;;4987091;28;20030;-70
2023/07/29 05:50:46;;;;;;;6.22;3.50;;;21.00;99.90;;;;;;4983526;28;20050;-70
2023/07/29 05:53:32;;;;;;;4.85;3.85;;;21.10;99.90;;;;;;4990104;28;20077;-70
2023/07/29 05:56:18;;;;;;;6.07;3.92;;;21.10;99.90;;;;;;4989964;28;20193;-71
2023/07/29 05:59:03;;;;;;;5.40;3.75;;;21.10;99.90;;;;;;4992380;28;20046;-71
2023/07/29 06:01:49;;;;;;;5.40;4.20;;;21.10;99.90;;;;;;4976720;28;20476;-70
2023/07/29 06:04:35;;;;;;;6.50;4.05;;;21.10;99.90;;;;;;4989914;28;20462;-68
2023/07/29 06:07:21;;;;;;;6.32;4.05;;;21.20;99.90;;;;;;4977379;28;20045;-68
2023/07/29 06:10:08;;;;;;;5.72;3.88;;;21.20;99.90;;;;;;4994190;28;20533;-69
2023/07/29 06:12:54;;;;;;;4.72;3.88;;;21.20;99.90;;;;;;5011263;28;20486;-68
2023/07/29 06:15:40;;;;;;;5.68;3.78;;;21.30;99.90;;;;;;4982307;28;20051;-69
2023/07/29 06:18:25;;;;;;;4.88;3.55;;;21.30;99.90;;;;;;4972964;28;20035;-68
2023/07/29 06:21:16;;;;;;;7.00;3.80;;;21.40;99.90;;;;;;4989965;28;20427;-68
2023/07/29 06:24:03;;;;;;;4.80;3.40;;;21.40;99.90;;;;;;4988661;28;20085;-68
2023/07/29 06:26:49;;;;;;;10.50;3.85;;;21.40;99.90;;;;;;4988777;28;20046;-69
2023/07/29 06:29:35;;;;;;;3.67;2.95;;;21.40;99.90;;;;;;4968333;28;20496;-68
2023/07/29 06:32:20;;;;;;;5.80;3.47;;;21.50;99.90;;;;;;4983729;28;20065;-66
2023/07/29 06:35:07;;;;;;;5.53;3.22;;;21.60;99.90;;;;;;4983336;28;20053;-66
2023/07/29 06:37:53;;;;;;;4.70;3.42;;;21.60;99.90;;;;;;4979057;28;20050;-66
2023/07/29 06:40:38;;;;;;;4.85;3.35;;;21.70;99.90;;;;;;4979538;28;20092;-67
2023/07/29 06:43:24;;;;;;;4.88;3.30;;;21.70;99.90;;;;;;4990078;28;20744;-67
2023/07/29 06:46:10;;;;;;;5.22;3.35;;;21.70;99.90;;;;;;4981536;28;20129;-67
2023/07/29 06:48:56;;;;;;;5.40;3.22;;;21.80;99.90;;;;;;4982487;28;20050;-67
2023/07/29 06:51:42;;;;;;;5.75;2.95;;;21.80;99.90;;;;;;4988877;28;20066;-67
2023/07/29 06:54:28;;;;;;;3.67;2.92;;;21.90;99.90;;;;;;4988650;28;20145;-68
2023/07/29 06:57:14;;;;;;;3.80;3.05;;;22.00;99.90;;;;;;4978194;28;20113;-68
2023/07/29 07:00:00;;;;;;;4.15;2.92;;;22.10;99.90;;;;;;4979206;28;20403;-67
2023/07/29 07:02:46;;;;;;;3.63;2.72;;;22.10;99.90;;;;;;4988547;28;20070;-66
2023/07/29 07:05:32;;;;;;;4.45;2.97;;;22.20;99.90;;;;;;4988226;28;20038;-66
2023/07/29 07:08:18;;;;;;;5.53;3.65;;;22.30;99.90;;;;;;4976783;28;20042;-67
2023/07/29 07:11:04;;;;;;;5.47;3.63;;;22.40;99.90;;;;;;4986330;28;20066;-68
2023/07/29 07:13:50;;;;;;;5.45;2.95;;;22.50;99.90;;;;;;4987376;28;20058;-67
2023/07/29 07:16:39;;;;;;;4.20;3.22;;;22.60;99.90;;;;;;4986054;28;20035;-66
2023/07/29 07:19:25;;;;;;;5.32;3.28;;;22.80;99.90;;;;;;4986308;28;20050;-66
2023/07/29 07:22:10;;;;;;;5.55;3.60;;;22.90;99.90;;;;;;4989415;28;20480;-66
2023/07/29 07:24:56;;;;;;;5.65;2.95;;;23.00;99.90;;;;;;4984637;28;20053;-63
2023/07/29 07:27:42;;;;;;;8.07;3.55;;;23.10;99.90;;;;;;4985516;28;20038;-64
2023/07/29 07:30:28;;;;;;;7.00;3.97;;;23.30;99.90;;;;;;4986471;28;20089;-66
2023/07/29 07:33:14;;;;;;;14.05;4.90;;;23.30;99.90;;;;;;4971835;28;20414;-66
2023/07/29 07:36:00;;;;;;;9.55;3.72;;;23.40;99.90;;;;;;4988518;28;20038;-66
2023/07/29 07:38:46;;;;;;;6.22;3.13;;;23.50;99.90;;;;;;4988138;28;20054;-66
2023/07/29 07:41:32;;;;;;;13.38;3.35;;;23.60;99.90;;;;;;4983466;28;20197;-66
2023/07/29 07:44:19;;;;;;;7.43;3.60;;;23.70;99.90;;;;;;4987488;28;20062;-66
2023/07/29 07:47:05;;;;;;;4.15;3.00;;;23.80;99.90;;;;;;4979585;28;20034;-66
2023/07/29 07:49:51;;;;;;;7.65;3.05;;;24.00;99.90;;;;;;4986153;28;20108;-65
2023/07/29 07:52:37;;;;;;;7.90;3.63;;;24.10;99.90;;;;;;4980266;28;20464;-66
2023/07/29 07:55:23;;;;;;;7.57;3.30;;;24.20;99.90;;;;;;4986848;28;20042;-66
2023/07/29 07:58:09;;;;;;;4.18;2.72;;;24.30;99.90;;;;;;4988515;28;20038;-67
2023/07/29 08:01:06;;;;;;;5.35;3.15;;;24.30;99.90;;;;;;4980444;28;20050;-66
2023/07/29 08:03:52;;;;;;;5.07;2.85;;;24.50;99.90;;;;;;4985704;28;20503;-67
2023/07/29 08:06:37;;;;;;;4.05;2.70;;;24.50;99.90;;;;;;4985868;28;20074;-68
2023/07/29 08:09:24;;;;;;;4.38;2.72;;;24.50;99.90;;;;;;4988326;28;20042;-67
2023/07/29 08:12:09;;;;;;;5.50;2.60;;;24.50;99.90;;;;;;4983282;28;20456;-68
2023/07/29 08:14:55;;;;;;;4.65;3.17;;;24.60;99.90;;;;;;4985466;28;20053;-67
2023/07/29 08:17:41;;;;;;;4.10;3.20;;;24.70;99.90;;;;;;4969702;28;20496;-68
2023/07/29 08:20:27;;;;;;;5.63;3.50;;;24.70;99.90;;;;;;4979706;28;20533;-68
2023/07/29 08:23:13;;;;;;;6.10;3.65;;;24.70;99.90;;;;;;4989770;28;20038;-67
2023/07/29 08:26:02;;;;;;;7.55;3.10;;;24.80;99.90;;;;;;4980252;28;20041;-67
2023/07/29 08:28:48;;;;;;;4.82;2.92;;;24.80;99.90;;;;;;4985053;28;20401;-68
2023/07/29 08:31:34;;;;;;;9.73;3.58;;;24.90;99.90;;;;;;4971611;28;20134;-68
2023/07/29 08:34:20;;;;;;;7.03;3.53;;;25.00;99.90;;;;;;4972493;28;20057;-68
2023/07/29 08:37:06;;;;;;;4.55;3.10;;;25.20;99.90;;;;;;4970183;28;20039;-68
2023/07/29 08:39:53;;;;;;;2.95;2.28;;;25.30;99.90;;;;;;4975171;28;20046;-67
2023/07/29 08:42:43;;;;;;;4.03;2.70;;;25.30;99.90;;;;;;4982044;28;20051;-68
2023/07/29 08:45:34;;;;;;;4.55;2.33;;;25.40;99.90;;;;;;4977613;28;20117;-67
2023/07/29 08:48:29;;;;;;;5.18;3.00;;;25.50;99.90;;;;;;4988740;28;20399;-68
2023/07/29 08:51:17;;;;;;;3.38;2.45;;;25.60;99.90;;;;;;4987127;28;20038;-68
2023/07/29 08:54:03;;;;;;;3.25;2.58;;;25.60;99.90;;;;;;4987711;28;20100;-68
2023/07/29 08:56:50;;;;;;;5.05;2.78;;;25.60;99.90;;;;;;4989203;28;20150;-67
2023/07/29 08:59:37;;;;;;;4.57;2.72;;;25.50;99.90;;;;;;4991106;28;20467;-68
2023/07/29 09:02:23;;;;;;;4.68;3.13;;;25.50;99.90;;;;;;4973176;28;20046;-68
2023/07/29 09:05:09;;;;;;;4.57;2.75;;;25.60;99.90;;;;;;4980244;28;20145;-67
2023/07/29 09:07:55;;;;;;;4.55;2.80;;;25.60;99.90;;;;;;4990630;28;20086;-68
2023/07/29 09:10:41;;;;;;;8.57;2.63;;;25.70;99.90;;;;;;4983765;28;20491;-68
2023/07/29 09:13:28;;;;;;;4.45;2.30;;;25.80;99.90;;;;;;4990693;28;20053;-69
2023/07/29 09:16:15;;;;;;;4.20;2.45;;;25.90;99.90;;;;;;4992033;28;20054;-68
2023/07/29 09:19:03;;;;;;;5.75;3.08;;;25.90;99.90;;;;;;4993083;28;20411;-68
2023/07/29 09:21:49;;;;;;;3.17;2.40;;;26.00;99.90;;;;;;4992220;28;20440;-69
2023/07/29 09:24:35;;;;;;;3.05;2.30;;;26.10;99.90;;;;;;4991253;28;20042;-68
2023/07/29 09:27:28;;;;;;;3.83;2.47;;;26.10;99.90;;;;;;4974573;28;20045;-68
2023/07/29 09:30:16;;;;;;;3.63;2.15;;;26.10;99.90;;;;;;4991376;28;20455;-68
2023/07/29 09:33:02;;;;;;;6.22;2.95;;;26.20;99.90;;;;;;4992852;28;20050;-68
2023/07/29 09:35:48;;;;;;;3.30;2.30;;;26.20;99.90;;;;;;4991201;28;20121;-68
2023/07/29 09:38:35;;;;;;;6.22;2.45;;;26.30;99.90;;;;;;4991976;28;20260;-68
2023/07/29 09:41:26;;;;;;;3.85;1.90;;;26.30;99.90;;;;;;4991741;28;20141;-67
2023/07/29 09:44:12;;;;;;;3.65;2.47;;;26.40;99.90;;;;;;4990133;28;20117;-68
2023/07/29 09:46:59;;;;;;;2.42;1.88;;;26.50;99.90;;;;;;4992127;28;20051;-68
2023/07/29 09:49:44;;;;;;;6.22;3.35;;;26.60;99.90;;;;;;4991264;28;20436;-68
2023/07/29 09:52:30;;;;;;;4.43;2.35;;;26.60;99.90;;;;;;4992468;28;20419;-68
2023/07/29 09:55:26;;;;;;;4.90;2.38;;;26.50;99.90;;;;;;4989001;28;20184;-68
2023/07/29 09:58:12;;;;;;;3.28;2.15;;;26.50;99.90;;;;;;4972483;28;20082;-67
2023/07/29 10:00:58;;;;;;;2.88;1.90;;;26.40;99.70;;;;;;4985184;28;20564;-67
2023/07/29 10:03:45;;;;;;;4.72;2.30;;;26.50;99.70;;;;;;4992023;28;20074;-67
2023/07/29 10:06:34;;;;;;;5.13;2.15;;;26.50;99.90;;;;;;4991181;28;20046;-68
2023/07/29 10:09:21;;;;;;;6.40;3.25;;;26.60;99.70;;;;;;4987961;28;20478;-68
2023/07/29 10:12:07;;;;;;;3.58;2.13;;;26.60;99.60;;;;;;4989956;28;20081;-68
2023/07/29 10:14:58;;;;;;;4.18;2.63;;;26.70;99.50;;;;;;4990437;28;20054;-68
2023/07/29 10:17:46;;;;;;;3.08;1.70;;;26.80;99.80;;;;;;4991492;28;20042;-67
2023/07/29 10:20:33;;;;;;;3.78;2.15;;;26.90;99.50;;;;;;4989878;28;20047;-68
2023/07/29 10:23:22;;;;;;;2.83;1.90;;;27.00;99.20;;;;;;4992310;28;20125;-67
2023/07/29 10:26:10;;;;;;;2.78;2.08;;;26.90;99.20;;;;;;4988401;28;20046;-67
2023/07/29 10:29:04;;;;;;;2.00;1.60;;;26.90;99.30;;;;;;4992094;28;20035;-68
2023/07/29 10:31:57;;;;;;;2.90;1.92;;;26.90;98.90;;;;;;4976657;28;20050;-67
2023/07/29 10:34:43;;;;;;;2.15;1.70;;;27.00;99.10;;;;;;4990353;28;20061;-68
2023/07/29 10:37:30;;;;;;;2.55;1.85;;;26.90;99.10;;;;;;4988904;28;20042;-68
2023/07/29 10:40:17;;;;;;;2.22;1.67;;;26.90;99.30;;;;;;4990131;28;20054;-68
2023/07/29 10:43:10;;;;;;;3.83;2.00;;;26.80;99.50;;;;;;4989151;28;20050;-68
2023/07/29 10:45:57;;;;;;;4.03;1.67;;;26.80;99.50;;;;;;4989748;28;20049;-67
2023/07/29 10:48:51;;;;;;;4.38;2.10;;;26.70;99.30;;;;;;4991761;28;20578;-68
2023/07/29 10:51:37;;;;;;;4.45;2.17;;;26.70;99.40;;;;;;4989068;28;20411;-67
2023/07/29 10:54:23;;;;;;;2.80;1.75;;;26.70;99.40;;;;;;4989100;28;20078;-68
2023/07/29 10:57:16;;;;;;;2.67;1.88;;;26.70;99.60;;;;;;4981552;28;20061;-65
2023/07/29 11:00:04;;;;;;;4.15;1.80;;;26.70;99.40;;;;;;4985005;28;20069;-68
2023/07/29 11:03:01;;;;;;;4.25;2.10;;;26.70;99.30;;;;;;4976037;28;20038;-66
2023/07/29 11:05:52;;;;;;;3.75;1.77;;;26.60;99.00;;;;;;4979934;28;20071;-66
2023/07/29 11:08:38;;;;;;;5.10;1.65;;;26.50;98.90;;;;;;4965697;28;20061;-72
2023/07/29 11:11:24;;;;;;;3.42;1.70;;;26.40;98.50;;;;;;4977096;28;20495;-72
2023/07/29 11:14:11;;;;;;;2.55;1.65;;;26.30;98.30;;;;;;4982463;28;20114;-75
2023/07/29 11:16:58;;;;;;;3.42;2.10;;;26.30;98.40;;;;;;4986819;28;20154;-74
2023/07/29 11:19:46;;;;;;;4.85;2.72;;;26.20;98.30;;;;;;4983784;28;20064;-73
2023/07/29 11:22:32;;;;;;;3.25;1.85;;;26.10;98.10;;;;;;4971099;28;20097;-78
2023/07/29 11:25:19;;;;;;;7.60;2.47;;;25.90;98.50;;;;;;4984462;28;20129;-84
2023/07/29 11:28:05;;;;;;;2.92;1.50;;;25.50;98.90;;;;;;4988306;28;20039;-82
2023/07/29 11:30:51;;;;;;;2.63;1.42;;;25.30;99.40;;;;;;4989552;28;20043;-73
2023/07/29 11:33:39;;;;;;;9.35;1.90;;;24.90;99.90;;;;;;4989349;28;20076;-72
2023/07/29 11:36:24;;;;;;;2.92;1.15;;;24.70;99.90;;;;;;4980893;28;20078;-72
2023/07/29 11:39:11;;;;;;;3.50;1.40;;;24.40;99.90;;;;;;4974949;28;20573;-72
2023/07/29 11:41:57;;;;;;;2.95;1.30;;;24.30;99.90;;;;;;4987926;28;20129;-71
2023/07/29 11:44:43;;;;;;;2.55;1.33;;;24.20;99.90;;;;;;4985412;28;20459;-71
2023/07/29 11:47:29;;;;;;;4.30;1.67;;;24.20;99.90;;;;;;4974666;28;20046;-71
2023/07/29 11:50:15;;;;;;;3.50;1.15;;;24.00;99.90;;;;;;4988859;28;20042;-71
2023/07/29 11:53:01;;;;;;;2.90;1.40;;;24.00;99.90;;;;;;4990581;28;20482;-71
2023/07/29 11:55:52;;;;;;;3.13;1.55;;;23.90;99.90;;;;;;4985919;28;20133;-72
2023/07/29 11:58:38;;;;;;;4.20;1.90;;;23.80;99.90;;;;;;4989914;28;20038;-71
2023/07/29 12:01:24;;;;;;;2.67;1.75;;;23.80;99.90;;;;;;4986623;28;20121;-70
2023/07/29 12:04:11;;;;;;;5.32;1.85;;;23.80;99.90;;;;;;4989460;28;20042;-71
2023/07/29 12:06:57;;;;;;;9.57;2.72;;;23.70;99.90;;;;;;4989570;28;20065;-70
2023/07/29 12:09:43;;;;;;;4.57;1.95;;;23.70;99.90;;;;;;4988765;28;20062;-71
2023/07/29 12:12:29;;;;;;;4.10;1.90;;;23.70;99.90;;;;;;4975024;28;20034;-72
2023/07/29 12:15:29;;;;;;;3.70;2.05;;;23.70;99.90;;;;;;4988649;28;20423;-70
2023/07/29 12:18:15;;;;;;;2.55;1.13;;;23.70;99.90;;;;;;4988459;28;20086;-71
2023/07/29 12:21:01;;;;;;;2.83;1.77;;;23.70;99.90;;;;;;4989125;28;20531;-70
2023/07/29 12:23:47;;;;;;;5.40;2.47;;;23.60;99.90;;;;;;4989026;28;20050;-72
2023/07/29 12:26:33;;;;;;;4.07;1.77;;;23.60;99.90;;;;;;4988926;28;20052;-71
2023/07/29 12:29:19;;;;;;;2.63;1.77;;;23.60;99.90;;;;;;4988079;28;20385;-71
2023/07/29 12:32:06;;;;;;;4.10;1.92;;;23.50;99.90;;;;;;4970142;28;20037;-70
2023/07/29 12:34:53;;;;;;;5.75;2.08;;;23.60;99.90;;;;;;4975552;28;20487;-72
2023/07/29 12:37:42;;;;;;;2.45;1.65;;;23.60;99.90;;;;;;4989832;28;20042;-72
2023/07/29 12:40:28;;;;;;;2.25;1.65;;;23.60;99.90;;;;;;4979250;28;20153;-72
2023/07/29 12:43:14;;;;;;;5.30;1.80;;;23.70;99.90;;;;;;4982130;28;20129;-71
2023/07/29 12:46:00;;;;;;;2.72;1.55;;;23.70;99.90;;;;;;4980570;28;20047;-72
2023/07/29 12:48:46;;;;;;;4.30;1.85;;;23.80;99.90;;;;;;4985849;28;20061;-71
2023/07/29 12:51:32;;;;;;;3.40;1.70;;;23.90;99.90;;;;;;4986028;28;20046;-71
2023/07/29 12:54:18;;;;;;;3.47;1.58;;;24.00;99.90;;;;;;4988147;28;20065;-73
2023/07/29 12:57:04;;;;;;;2.55;1.33;;;24.30;99.90;;;;;;4976206;28;20142;-73
2023/07/29 12:59:50;;;;;;;3.30;1.45;;;24.50;99.90;;;;;;4973603;28;20496;-72
2023/07/29 13:02:36;;;;;;;4.50;2.00;;;24.70;99.90;;;;;;4988326;28;20063;-72
2023/07/29 13:05:22;;;;;;;3.10;1.80;;;24.90;99.90;;;;;;4978357;28;20046;-73
2023/07/29 13:08:10;;;;;;;2.72;2.08;;;25.10;99.90;;;;;;4985049;28;20069;-73
2023/07/29 13:10:56;;;;;;;2.38;1.48;;;25.20;99.90;;;;;;4987617;28;20046;-72
2023/07/29 13:13:42;;;;;;;3.72;1.90;;;25.30;99.90;;;;;;4985554;28;20054;-70
2023/07/29 13:16:29;;;;;;;3.63;2.40;;;25.30;99.90;;;;;;4987372;28;20466;-72
2023/07/29 13:19:14;;;;;;;3.90;2.38;;;25.40;99.90;;;;;;4987758;28;20546;-72
2023/07/29 13:22:02;;;;;;;3.95;2.10;;;25.40;99.90;;;;;;4987443;28;20130;-71
2023/07/29 13:24:48;;;;;;;3.08;1.88;;;25.40;99.90;;;;;;4985547;28;20093;-73
2023/07/29 13:27:34;;;;;;;2.40;1.80;;;25.40;99.90;;;;;;4987589;28;20128;-72
2023/07/29 13:30:19;;;;;;;2.95;2.03;;;25.30;99.90;;;;;;4984187;28;20526;-72
2023/07/29 13:33:09;;;;;;;5.32;2.45;;;25.20;99.90;;;;;;4988438;28;20061;-70
2023/07/29 13:35:55;;;;;;;3.85;2.47;;;25.20;99.90;;;;;;4975111;28;20058;-73
2023/07/29 13:38:41;;;;;;;2.83;2.05;;;25.30;99.90;;;;;;4975637;28;20120;-71
2023/07/29 13:41:27;;;;;;;2.70;1.85;;;25.30;99.90;;;;;;4976526;28;20376;-72
2023/07/29 13:44:13;;;;;;;2.10;1.67;;;25.50;99.90;;;;;;4990596;28;20114;-73
2023/07/29 13:46:59;;;;;;;2.70;2.00;;;25.80;99.90;;;;;;4992855;28;20042;-74
2023/07/29 13:49:45;;;;;;;2.67;1.80;;;25.90;99.90;;;;;;4975220;28;20042;-75
2023/07/29 13:52:31;;;;;;;2.40;1.50;;;26.00;99.90;;;;;;4991014;28;20057;-74
2023/07/29 13:55:17;;;;;;;4.80;1.77;;;26.10;99.90;;;;;;4986846;28;20086;-73
2023/07/29 13:58:03;;;;;;;1.85;1.45;;;26.10;99.90;;;;;;4977078;28;20031;-72
2023/07/29 14:00:49;;;;;;;1.33;1.13;;;26.30;99.90;;;;;;4968852;28;20102;-72
2023/07/29 14:03:35;;;;;;;1.85;1.50;;;26.50;99.90;;;;;;4991976;28;20035;-72
2023/07/29 14:06:20;;;;;;;2.15;1.70;;;26.50;99.90;;;;;;4984358;28;20190;-73
2023/07/29 14:09:06;;;;;;;4.72;1.58;;;26.60;99.90;;;;;;4980754;28;20116;-72
2023/07/29 14:11:54;;;;;;;7.18;1.60;;;26.70;99.90;;;;;;4992513;28;20057;-73
2023/07/29 14:14:40;;;;;;;6.85;2.40;;;26.80;99.90;;;;;;4998116;28;20397;-73
2023/07/29 14:17:26;;;;;;;4.65;2.80;;;26.90;99.90;;;;;;4989541;28;20046;-74
2023/07/29 14:20:13;;;;;;;3.55;2.20;;;26.80;99.70;;;;;;4990509;28;20050;-73
2023/07/29 14:22:59;;;;;;;4.20;1.60;;;26.80;99.50;;;;;;4992147;28;20046;-74
2023/07/29 14:25:45;;;;;;;2.85;1.63;;;26.70;99.20;;;;;;4991624;28;20038;-72
2023/07/29 14:28:31;;;;;;;3.97;1.75;;;26.60;99.10;;;;;;4973263;28;20039;-73